Pagrindinis puslapis
METAR-TAF:

METAR-TAF

Oro uostai :

Davao, Filipinai

platuma: 07-07N, ilguma: 125-39E, Aukštis: 17 m

Dabartinis oras

Ataskaita buvo paskelbta 16 minutes, ne 06:00 UTC
Vėjas 10 kt iš Šiaurės Rytų
Temperatūra 34°C
Drėgmė 53%
Slėgis 1008 hPa
Matomumas 10 km arba daugiau
Išsisklaidę debesys ne aukštis 1600 ft

METAR: RPMD 300600Z 05010KT 9999 SCT016 34/23 Q1008 RMK A2977

Laikas: 14:16 (06:16 UTC)

Prognozė

Ataskaita buvo paskelbta 1 valandą ir 16 minutes, ne 05:00 UTC
Prognozė galioja nuo 30 metu 06 UTC su 31 metu 06 UTC
Vėjas 9 kt iš Šiaurės
Matomumas 10 km arba daugiau
Mažai debesys ne aukštis 1600 ft
Išsisklaidę debesys ne aukštis 9000 ft
Su prošvaistėmis ne aukštis 29000 ft
Laikinai
nuo 30 metu 06 UTC su 30 metu 12 UTC
Vėjas 12 kt iš Šiaurės Rytų
Mažai debesys ne aukštis 1500 ft, Liūtiniai kamuoliniai debesys.
Išsisklaidę debesys ne aukštis 1600 ft
Su prošvaistėmis ne aukštis 9000 ft
lietus

TAF: RPMD 300500Z 3006/3106 35009KT 9999 FEW016 SCT090 BKN290 TEMPO 3006/3012 04012KT -SHRA FEW015CB SCT016 BKN090

Orai ataskaitas ir orų prognozės (METAR, TAF).

turimą stotys yra geltonos ir raudonos taškus žemėlapyje.

Perkelti pele per norėdami pamatyti stoties vardą.

Tada spustelėkite, norėdami matyti oro stebėjimo ir prognozės.

Norėdami pakeisti žemėlapį: spustelėkite ant žalios mygtukų su juodo kryžiaus žemyn,; žalią mygtuką su brūkšneliu, jei norite nutolinti; arba žalių rodyklių gretimoms žemėlapius.


METAR-TAF: